• Join FlightAware (Why Join?)
  • Login
  • US Flag 
12:56PM EDT


 

Airport Tracker/Info


-or-


 

Live Flight TrackerFlight Track Log ✈ N20AZ ✈ 01-Sep-2013 ✈ KSRQ - KRYY

Flight Track Log - Related Links

Times and Time Zones

All times are in EDT time to prevent confusion due to time zone crossing. See the N20AZ flight status page for this flight to view local times or setup timezone preferences in your user account.

Time Position Orientation Groundspeed Altitude Reporting Facility
EDT Latitude Longitude Course Direction KTS MPH feet Rate Location/Type
09:57AM 27.3833 -82.5667 299° West 99 114 300  Level Tampa TRACON
09:58AM 27.4000 -82.6000 299° West 122 140 1,200 600 Climbing Tampa TRACON
09:59AM 27.4333 -82.6333 318° Northwest 142 163 1,700 420 Climbing Tampa TRACON
10:00AM 27.4667 -82.6167 24° Northeast 137 158 2,000 240 Climbing Tampa TRACON
10:01AM 27.5000 -82.6333 336° Northwest 134 154 2,200 180 Climbing Tampa TRACON
10:02AM 27.5333 -82.6500 336° Northwest 134 154 2,500 300 Climbing Tampa TRACON
10:03AM 27.5833 -82.6667 344° North 127 146 2,900 360 Climbing Tampa TRACON
10:04AM 27.6000 -82.6833 318° Northwest 128 147 3,300 360 Climbing Tampa TRACON
10:05AM 27.6500 -82.7000 344° North 130 150 3,700 420 Climbing Tampa TRACON
10:06AM 27.6833 -82.7000 360° North 132 152 4,200 420 Climbing Tampa TRACON
10:07AM 27.7167 -82.7167 336° Northwest 126 145 4,700 540 Climbing Tampa TRACON
10:08AM 27.7500 -82.7167 360° North 123 142 5,400 600 Climbing Tampa TRACON
10:09AM 27.7833 -82.7167 360° North 124 143 6,000 600 Climbing Tampa TRACON
10:10AM 27.8167 -82.7167 360° North 122 140 6,600 480 Climbing Tampa TRACON
10:11AM 27.8500 -82.7167 360° North 123 142 7,100 480 Climbing Tampa TRACON
10:12AM 27.8833 -82.7333 336° Northwest 117 135 7,500 480 Climbing Tampa TRACON
10:13AM 27.9167 -82.7333 360° North 116 133 8,000 180 Climbing Tampa TRACON
10:14AM 27.9500 -82.7500 336° Northwest 140 161 8,000  Level Tampa TRACON
10:15AM 28.0000 -82.7500 360° North 149 171 8,000  Level Tampa TRACON
10:16AM 28.0333 -82.7667 336° Northwest 150 173 8,000  Level Tampa TRACON
10:17AM 28.0667 -82.7833 336° Northwest 150 173 8,000  Level Tampa TRACON
10:18AM 28.1167 -82.8000 344° North 149 171 8,000  Level Tampa TRACON
10:19AM 28.1500 -82.8000 360° North 148 170 8,000  Level Tampa TRACON
10:20AM 28.2000 -82.8167 344° North 150 173 8,000  Level Tampa TRACON
10:21AM 28.2333 -82.8333 336° Northwest 147 169 8,000  Level Tampa TRACON
10:22AM 28.2667 -82.8333 360° North 146 168 8,000  Level Tampa TRACON
10:23AM 28.3167 -82.8500 344° North 147 169 8,000  Level Tampa TRACON
10:24AM 28.3500 -82.8667 336° Northwest 148 170 8,000  Level Tampa TRACON
10:25AM 28.4000 -82.8667 360° North 147 169 8,000 -120 Level Tampa TRACON
10:26AM 28.4128 -82.8783 321° Northwest 144 166 7,900 -120 Descending Jacksonville Center
10:27AM 28.4525 -82.8878 348° North 144 166 7,900  Level Jacksonville Center
10:28AM 28.4922 -82.8997 345° North 149 171 7,900  Level Jacksonville Center
10:29AM 28.5319 -82.9092 348° North 149 171 7,900  Level Jacksonville Center
10:30AM 28.5694 -82.9233 342° North 149 171 7,900  Level Jacksonville Center
10:31AM 28.6089 -82.9328 348° North 149 171 7,900  Level Jacksonville Center
10:32AM 28.6467 -82.9422 348° North 144 166 7,900  Level Jacksonville Center
10:33AM 28.6842 -82.9517 348° North 144 166 7,900  Level Jacksonville Center
10:34AM 28.7217 -82.9611 348° North 144 166 7,900  Level Jacksonville Center
10:35AM 28.7614 -82.9756 342° North 144 166 7,900  Level Jacksonville Center
10:36AM 28.8011 -82.9850 348° North 144 166 7,900  Level Jacksonville Center
10:37AM 28.8386 -82.9969 344° North 144 166 7,900  Level Jacksonville Center
10:38AM 28.8783 -83.0089 345° North 144 166 7,900  Level Jacksonville Center
10:39AM 28.9158 -83.0206 345° North 144 166 7,900  Level Jacksonville Center
10:40AM 28.9533 -83.0278 350° North 144 166 7,900  Level Jacksonville Center
10:41AM 28.9908 -83.0397 344° North 144 166 7,900  Level Jacksonville Center
10:42AM 29.0306 -83.0517 345° North 144 166 7,900  Level Jacksonville Center
10:43AM 29.0661 -83.0611 347° North 144 166 7,900  Level Jacksonville Center
10:44AM 29.1036 -83.0708 347° North 144 166 7,900  Level Jacksonville Center
10:45AM 29.1411 -83.0828 344° North 144 166 7,900  Level Jacksonville Center
10:46AM 29.1808 -83.0947 345° North 144 166 7,900  Level Jacksonville Center
10:47AM 29.2183 -83.1044 347° North 144 166 7,900  Level Jacksonville Center
10:48AM 29.2581 -83.1139 348° North 144 166 8,000  Climbing Jacksonville Center
10:49AM 29.2933 -83.1283 340° North 144 166 8,000  Level Jacksonville Center
10:50AM 29.3331 -83.1356 351° North 144 166 8,000  Level Jacksonville Center
10:51AM 29.3706 -83.1475 344° North 144 166 8,000  Level Jacksonville Center
10:52AM 29.4103 -83.1594 345° North 144 166 8,000  Level Jacksonville Center
10:53AM 29.4500 -83.1644 354° North 144 166 8,000  Level Jacksonville Center
10:54AM 29.4875 -83.1692 354° North 144 166 8,000 -60 Level Jacksonville Center
10:55AM 29.5272 -83.1719 357° North 144 166 7,900 -60 Descending Jacksonville Center
10:56AM 29.5667 -83.1767 354° North 144 166 7,900  Level Jacksonville Center
10:57AM 29.6064 -83.1839 351° North 144 166 7,900  Level Jacksonville Center
10:58AM 29.6439 -83.1961 344° North 144 166 7,900  Level Jacksonville Center
10:59AM 29.6817 -83.2081 345° North 144 166 8,000  Climbing Jacksonville Center
11:00AM 29.7150 -83.2178 346° North 144 166 8,000  Level Jacksonville Center
11:01AM 29.7544 -83.2300 345° North 144 166 8,000  Level Jacksonville Center
11:02AM 29.7922 -83.2394 348° North 144 166 8,000  Level Jacksonville Center
11:03AM 29.8297 -83.2517 344° North 144 166 8,000  Level Jacksonville Center
11:04AM 29.8692 -83.2639 345° North 144 166 8,000  Level Jacksonville Center
11:05AM 29.9069 -83.2758 345° North 144 166 8,000 -60 Level Jacksonville Center
11:06AM 29.9444 -83.2856 347° North 144 166 7,900  Descending Jacksonville Center
11:07AM 29.9819 -83.2978 344° North 144 166 8,000  Climbing Jacksonville Center
11:08AM 30.0194 -83.3075 347° North 144 166 8,000  Level Jacksonville Center
11:09AM 30.0592 -83.3172 348° North 144 166 8,000  Level Jacksonville Center
11:10AM 30.0944 -83.3294 343° North 144 166 8,000  Level Jacksonville Center
11:11AM 30.1300 -83.3417 343° North 144 166 8,000  Level Jacksonville Center
11:12AM 30.1675 -83.3514 347° North 144 166 8,000  Level Jacksonville Center
11:13AM 30.2072 -83.3542 357° North 144 166 8,000 -60 Level Jacksonville Center
11:14AM 30.2406 -83.3542 360° North 142 163 7,900  Descending Jacksonville Center
11:15AM 30.2844 -83.3569 357° North 144 166 8,000  Climbing Jacksonville Center
11:16AM 30.3178 -83.3667 346° North 140 161 7,900 -60 Descending Jacksonville Center
11:17AM 30.3575 -83.3814 342° North 141 162 7,900  Level Jacksonville Center
11:18AM 30.3950 -83.3936 344° North 140 161 7,900  Level Jacksonville Center
11:19AM 30.4325 -83.4033 347° North 140 161 7,900  Level Jacksonville Center
11:20AM 30.4722 -83.4156 345° North 141 162 7,900  Level Jacksonville Center
11:21AM 30.5097 -83.4303 341° North 145 167 7,900  Level Jacksonville Center
11:22AM 30.5514 -83.4378 351° North 144 166 8,000  Climbing Jacksonville Center
11:23AM 30.5889 -83.4525 341° North 144 166 8,000 -60 Level Jacksonville Center
11:24AM 30.6264 -83.4647 344° North 141 162 7,900 -60 Descending Jacksonville Center
11:25AM 30.6619 -83.4769 344° North 142 163 7,900  Level Jacksonville Center
11:26AM 30.7036 -83.4894 346° North 142 163 7,900  Level Jacksonville Center
11:27AM 30.7411 -83.4992 347° North 143 165 7,900  Level Jacksonville Center
11:28AM 30.7808 -83.5142 342° North 143 165 7,900  Level Jacksonville Center
11:29AM 30.8203 -83.5264 345° North 143 165 7,900  Level Jacksonville Center
11:30AM 30.8578 -83.5386 344° North 143 165 7,900  Level Jacksonville Center
11:31AM 30.8994 -83.5511 346° North 143 165 7,900  Level Jacksonville Center
11:32AM 30.9350 -83.5636 343° North 140 161 7,900  Level Jacksonville Center
11:33AM 30.9747 -83.5733 348° North 140 161 7,900  Level Jacksonville Center
11:34AM 31.0100 -83.5833 346° North 140 161 7,900  Level Jacksonville Center
11:35AM 31.0581 -83.5958 347° North 161 185 8,000  Climbing Jacksonville Center
11:36AM 31.0956 -83.6083 344° North 161 185 8,000  Level Jacksonville Center
11:37AM 31.1331 -83.6208 344° North 143 165 8,000  Level Jacksonville Center
11:38AM 31.1706 -83.6308 347° North 143 165 8,000  Level Jacksonville Center
11:39AM 31.2100 -83.6456 342° North 143 165 8,000  Level Jacksonville Center
11:40AM 31.2456 -83.6556 346° North 143 165 8,000  Level Jacksonville Center
11:41AM 31.2831 -83.6681 344° North 143 165 8,000  Level Jacksonville Center
11:42AM 31.3228 -83.6806 345° North 143 165 8,000  Level Jacksonville Center
11:43AM 31.3603 -83.6931 344° North 143 165 8,000  Level Jacksonville Center
11:44AM 31.3997 -83.7056 345° North 143 165 8,000  Level Jacksonville Center
11:45AM 31.4353 -83.7156 347° North 143 165 8,000  Level Jacksonville Center
11:46AM 31.4747 -83.7281 345° North 143 165 8,000  Level Jacksonville Center
11:47AM 31.5144 -83.7406 345° North 143 165 8,000  Level Jacksonville Center
11:48AM 31.5519 -83.7533 344° North 143 165 8,000  Level Jacksonville Center
11:49AM 31.5894 -83.7658 344° North 143 165 8,000  Level Jacksonville Center
11:50AM 31.6269 -83.7783 344° North 143 165 8,000  Level Jacksonville Center
11:51AM 31.6603 -83.7908 342° North 143 165 8,000  Level Jacksonville Center
11:52AM 31.7019 -83.7986 351° North 143 165 8,000  Level Jacksonville Center
11:53AM 31.7394 -83.8136 341° North 143 165 8,000  Level Jacksonville Center
11:54AM 31.7789 -83.8261 345° North 149 171 8,000  Level Jacksonville Center
11:55AM 31.8186 -83.8364 348° North 149 171 8,000  Level Jacksonville Center
11:56AM 31.8561 -83.8489 344° North 149 171 8,000  Level Jacksonville Center
11:57AM 31.8978 -83.8642 343° North 149 171 8,000  Level Jacksonville Center
11:58AM 31.9353 -83.8742 347° North 149 171 8,000 -60 Level Jacksonville Center
11:59AM 31.9728 -83.8869 344° North 144 166 7,900 -60 Descending Jacksonville Center
12:01PM 32.0500 -83.9167 342° North 148 170 7,900  Level Atlanta TRACON
12:02PM 32.0833 -83.9167 360° North 148 170 7,900  Level Atlanta TRACON
12:03PM 32.1167 -83.9333 337° Northwest 143 165 7,900  Level Atlanta TRACON
12:04PM 32.1667 -83.9500 344° North 146 168 7,900  Level Atlanta TRACON
12:05PM 32.2000 -83.9333 23° Northeast 146 168 7,900  Level Atlanta TRACON
12:06PM 32.2500 -83.9333 360° North 147 169 7,900  Level Atlanta TRACON
12:07PM 32.2833 -83.9333 360° North 146 168 7,900  Level Atlanta TRACON
12:08PM 32.3333 -83.9333 360° North 146 168 7,900  Level Atlanta TRACON
12:09PM 32.3667 -83.9333 360° North 145 167 7,900  Level Atlanta TRACON
12:10PM 32.4000 -83.9333 360° North 146 168 7,900  Level Atlanta TRACON
12:11PM 32.4500 -83.9333 360° North 146 168 7,900  Level Atlanta TRACON
12:12PM 32.4833 -83.9167 23° Northeast 144 166 7,900  Level Atlanta TRACON
12:13PM 32.5333 -83.9167 360° North 147 169 7,900  Level Atlanta TRACON
12:14PM 32.5667 -83.9167 360° North 144 166 7,900  Level Atlanta TRACON
12:15PM 32.6000 -83.9167 360° North 142 163 7,900  Level Atlanta TRACON
12:16PM 32.6500 -83.9167 360° North 143 165 7,900  Level Atlanta TRACON
12:17PM 32.6833 -83.9167 360° North 143 165 7,900  Level Atlanta TRACON
12:18PM 32.7167 -83.9167 360° North 140 161 7,900 -360 Level Atlanta TRACON
12:19PM 32.7667 -83.9000 16° North 149 171 7,300 -600 Descending Atlanta TRACON
12:20PM 32.8000 -83.9000 360° North 156 180 6,700 -660 Descending Atlanta TRACON
12:21PM 32.8500 -83.9000 360° North 154 177 6,000 -480 Descending Atlanta TRACON
12:22PM 32.8833 -83.9000 360° North 150 173 5,800 -60 Descending Atlanta TRACON
12:23PM 32.9333 -83.9000 360° North 145 167 5,900  Climbing Atlanta TRACON
12:24PM 32.9833 -83.9000 360° North 141 162 5,900  Level Atlanta TRACON
12:25PM 33.0167 -83.9000 360° North 145 167 5,900  Level Atlanta TRACON
12:26PM 33.0500 -83.8833 23° Northeast 140 161 5,900  Level Atlanta TRACON
12:27PM 33.1000 -83.8833 360° North 139 160 5,900  Level Atlanta TRACON
12:28PM 33.1333 -83.8833 360° North 142 163 5,900  Level Atlanta TRACON
12:29PM 33.1667 -83.8833 360° North 142 163 5,900  Level Atlanta TRACON
12:30PM 33.2000 -83.8833 360° North 140 161 5,900  Level Atlanta TRACON
12:31PM 33.2500 -83.8667 16° North 142 163 5,900  Level Atlanta TRACON
12:32PM 33.2833 -83.8833 337° Northwest 143 165 5,900 -60 Level Atlanta TRACON
12:33PM 33.3167 -83.8667 23° Northeast 142 163 5,800  Descending Atlanta TRACON
12:34PM 33.3500 -83.8667 360° North 143 165 5,900  Climbing Atlanta TRACON
12:35PM 33.4000 -83.8667 360° North 146 168 5,900  Level Atlanta TRACON
12:36PM 33.4333 -83.8667 360° North 139 160 5,900  Level Atlanta TRACON
12:37PM 33.4833 -83.8500 16° North 146 168 5,900 -120 Level Atlanta TRACON
12:38PM 33.5167 -83.8500 360° North 143 165 5,700 -540 Descending Atlanta TRACON
12:39PM 33.5667 -83.8333 16° North 158 182 4,900 -900 Descending Atlanta TRACON
12:40PM 33.6000 -83.8167 23° Northeast 161 185 4,000 -600 Descending Atlanta TRACON
12:41PM 33.6333 -83.8167 360° North 149 171 3,800 -120 Descending Atlanta TRACON
12:42PM 33.6833 -83.8167 360° North 142 163 3,800  Level Atlanta TRACON
12:43PM 33.7167 -83.8167 360° North 145 167 3,800  Level Atlanta TRACON
12:44PM 33.7500 -83.8167 360° North 143 165 3,800  Level Atlanta TRACON
12:45PM 33.7833 -83.8500 320° Northwest 131 151 3,800  Level Atlanta TRACON
12:46PM 33.8000 -83.9000 292° West 135 155 3,900  Climbing Atlanta TRACON
12:47PM 33.8167 -83.9333 301° West 133 153 3,900 -60 Level Atlanta TRACON
12:48PM 33.8333 -83.9667 301° West 131 151 3,800  Descending Atlanta TRACON
12:49PM 33.8500 -84.0000 301° West 147 169 3,900  Climbing Atlanta TRACON
12:50PM 33.8833 -84.0167 337° Northwest 143 165 3,800 -60 Descending Atlanta TRACON
12:51PM 33.9333 -84.0333 345° North 141 162 3,800  Level Atlanta TRACON
12:52PM 33.9667 -84.0500 337° Northwest 143 165 3,800  Level Atlanta TRACON
12:53PM 34.0000 -84.0667 337° Northwest 138 159 3,800  Level Atlanta TRACON
12:54PM 34.0167 -84.1167 292° West 129 148 3,800 -240 Level Atlanta TRACON
12:55PM 34.0167 -84.1667 270° West 132 152 3,400 -420 Descending Atlanta TRACON
12:56PM 34.0167 -84.2000 270° West 131 151 3,100 -240 Descending Atlanta TRACON
12:57PM 34.0167 -84.2500 270° West 124 143 2,900 -120 Descending Atlanta TRACON
12:58PM 34.0167 -84.2833 270° West 122 140 2,900  Level Atlanta TRACON
12:59PM 34.0167 -84.3333 270° West 125 144 2,900  Level Atlanta TRACON
01:00PM 34.0167 -84.3667 270° West 124 143 2,900  Level Atlanta TRACON
01:01PM 34.0167 -84.4167 270° West 128 147 2,900  Level Atlanta TRACON
01:02PM 34.0167 -84.4500 270° West 126 145 2,900 -360 Level Atlanta TRACON
01:03PM 34.0167 -84.5000 270° West 136 157 2,300 -600 Descending Atlanta TRACON
01:04PM 34.0167 -84.5333 270° West 127 146 1,700 -600 Descending Atlanta TRACON
01:06PM 34.0000 -84.5833 270° West  Level FlightAware Approximate
01:13PM 34.0132 -84.5971 270° West  Level Estimated